Time;durP1;ratioP1;P1;durP2;ratioP2;P2;SDS_P1;SDS_P2;PMS_P1;PMS_P2;Temp;Humidity;BMP_temperature;BMP_pressure;BME280_temperature;BME280_humidity;BME280_pressure;Samples;Min_cycle;Max_cycle;Signal;HPM_P1;HPM_P2
2023/03/03 00:04:30;;;;;;;28.90;14.37;;;1.80;99.90;;;0.01;88.11;100360.72;10510544;27;96600;-86
2023/03/03 00:09:33;;;;;;;32.20;16.23;;;1.90;99.90;;;0.03;88.12;100366.66;10501673;27;96570;-85
2023/03/03 00:14:36;;;;;;;30.87;16.10;;;1.90;99.90;;;0.07;88.24;100365.53;10512626;27;97403;-85
2023/03/03 00:19:41;;;;;;;40.27;21.87;;;2.00;99.90;;;0.06;88.43;100360.38;10486223;27;97362;-85
2023/03/03 00:24:44;;;;;;;40.57;20.70;;;1.90;99.90;;;0.00;88.28;100369.50;10508881;27;97616;-85
2023/03/03 00:29:54;;;;;;;47.50;23.57;;;1.90;99.90;;;-0.05;88.74;100361.09;10486460;27;96551;-86
2023/03/03 00:35:24;;;;;;;61.50;26.93;;;1.80;99.90;;;-0.13;88.05;100358.94;10476244;27;98518;-85
2023/03/03 00:40:39;;;;;;;84.87;36.80;;;1.80;99.90;;;-0.19;88.48;100355.88;10502594;27;96566;-85
2023/03/03 00:45:51;;;;;;;66.53;32.40;;;1.70;99.90;;;-0.25;88.99;100356.25;10489858;27;96606;-85
2023/03/03 00:51:00;;;;;;;38.63;19.73;;;1.70;99.90;;;-0.33;88.87;100346.28;10517772;27;98371;-85
2023/03/03 00:56:03;;;;;;;33.53;16.83;;;1.60;99.90;;;-0.42;88.88;100345.09;10480475;27;97888;-88
2023/03/03 01:01:06;;;;;;;32.80;17.63;;;1.50;99.90;;;-0.47;88.89;100344.53;10494628;27;96479;-88
2023/03/03 01:06:11;;;;;;;32.67;18.63;;;1.50;99.90;;;-0.54;89.11;100338.00;10478886;27;96637;-88
2023/03/03 01:11:24;;;;;;;37.50;19.97;;;1.40;99.90;;;-0.59;89.55;100335.69;10495925;27;98095;-88
2023/03/03 01:16:27;;;;;;;33.87;18.07;;;1.40;99.90;;;-0.63;89.49;100328.97;10503875;27;98320;-88
2023/03/03 01:21:31;;;;;;;40.30;20.07;;;1.30;99.90;;;-0.69;89.84;100318.06;10477335;27;97687;-88
2023/03/03 01:26:34;;;;;;;34.97;18.97;;;1.30;99.90;;;-0.71;89.89;100326.00;10504235;27;97347;-88
2023/03/03 01:31:37;;;;;;;33.03;18.60;;;1.30;99.90;;;-0.78;90.02;100318.59;10485198;27;98311;-89
2023/03/03 01:36:40;;;;;;;33.73;16.77;;;1.20;99.90;;;-0.85;90.14;100312.91;10478089;27;96902;-89
2023/03/03 01:41:43;;;;;;;29.43;16.87;;;1.10;99.90;;;-0.93;89.91;100316.00;10486225;27;97177;-92
2023/03/03 01:47:12;;;;;;;44.50;24.70;;;1.10;99.90;;;-1.00;89.95;100311.25;10498193;27;97100;-88
2023/03/03 01:52:45;;;;;;;33.67;18.57;;;1.00;99.90;;;-1.09;90.07;100316.06;10531880;27;97970;-89
2023/03/03 01:57:59;;;;;;;41.53;22.87;;;0.90;99.90;;;-1.15;90.26;100306.00;10520973;27;96936;-87
2023/03/03 02:03:04;;;;;;;33.27;17.20;;;0.90;99.90;;;-1.16;90.76;100304.31;10491827;27;96543;-88
2023/03/03 02:08:11;;;;;;;50.80;25.27;;;0.80;99.90;;;-1.19;90.71;100312.34;10485931;27;96563;-89
2023/03/03 02:13:14;;;;;;;34.03;17.73;;;0.80;99.90;;;-1.22;90.78;100303.84;10486622;27;96921;-88
2023/03/03 02:18:19;;;;;;;35.00;20.27;;;0.80;99.90;;;-1.25;91.43;100301.44;10491837;27;96683;-88
2023/03/03 02:23:45;;;;;;;44.47;22.73;;;0.70;99.90;;;-1.27;91.60;100301.50;10527245;27;96804;-88
2023/03/03 02:28:49;;;;;;;45.87;23.63;;;0.70;99.90;;;-1.27;91.90;100290.22;10520481;27;96502;-88
2023/03/03 02:33:53;;;;;;;38.03;19.10;;;0.70;99.90;;;-1.27;91.60;100295.44;10474304;27;98294;-87
2023/03/03 02:39:12;;;;;;;38.30;21.97;;;0.70;99.90;;;-1.29;92.05;100297.31;10508884;27;98053;-87
2023/03/03 02:44:19;;;;;;;43.23;23.67;;;0.70;99.90;;;-1.32;91.90;100294.88;10478184;27;96593;-87
2023/03/03 02:49:32;;;;;;;48.60;24.60;;;0.60;99.90;;;-1.37;92.49;100284.75;10509045;27;96692;-87
2023/03/03 02:54:36;;;;;;;41.17;20.63;;;0.60;99.90;;;-1.41;92.62;100285.84;10523212;27;96602;-88
2023/03/03 02:59:39;;;;;;;50.73;29.07;;;0.60;99.90;;;-1.44;92.19;100279.03;10502105;27;96883;-87
2023/03/03 03:04:42;;;;;;;44.20;22.20;;;0.60;99.90;;;-1.47;92.80;100280.97;10492955;27;97332;-87
2023/03/03 03:09:45;;;;;;;45.33;23.37;;;0.50;99.90;;;-1.51;92.87;100282.91;10497913;27;96556;-87
2023/03/03 03:14:48;;;;;;;45.83;22.87;;;0.50;99.90;;;-1.53;92.89;100278.72;10490050;27;96690;-87
2023/03/03 03:19:51;;;;;;;43.10;23.13;;;0.50;99.90;;;-1.59;92.99;100269.50;10496182;27;96661;-86
2023/03/03 03:24:54;;;;;;;39.47;21.23;;;0.40;99.90;;;-1.59;93.63;100264.28;10504195;27;97814;-86
2023/03/03 03:29:57;;;;;;;40.10;22.63;;;0.40;99.90;;;-1.59;93.34;100268.66;10486847;27;96920;-88
2023/03/03 03:35:01;;;;;;;35.80;19.37;;;0.40;99.90;;;-1.59;93.31;100266.91;10483413;27;96748;-87
2023/03/03 03:40:05;;;;;;;43.27;23.83;;;0.40;99.90;;;-1.60;93.43;100261.78;10482753;27;98354;-86
2023/03/03 03:45:08;;;;;;;42.53;23.00;;;0.40;99.90;;;-1.59;93.69;100251.25;10471237;27;98599;-86
2023/03/03 03:50:12;;;;;;;35.57;19.90;;;0.40;99.90;;;-1.58;93.78;100255.53;10517137;27;98233;-85
2023/03/03 03:55:15;;;;;;;39.90;22.67;;;0.40;99.90;;;-1.54;93.67;100256.22;10455402;27;97017;-85
2023/03/03 04:00:18;;;;;;;38.30;20.90;;;0.40;99.90;;;-1.49;94.13;100255.00;10449759;27;96998;-84
2023/03/03 04:05:22;;;;;;;37.87;21.17;;;0.40;99.90;;;-1.45;93.88;100245.22;10456556;27;96680;-85
2023/03/03 04:10:25;;;;;;;41.77;21.40;;;0.50;99.90;;;-1.42;94.03;100250.28;10469779;27;98008;-85
2023/03/03 04:15:28;;;;;;;40.33;22.70;;;0.50;99.90;;;-1.40;94.43;100251.84;10478535;27;96731;-85
2023/03/03 04:20:32;;;;;;;52.23;25.90;;;0.50;99.90;;;-1.39;94.08;100253.53;10447724;27;96526;-85
2023/03/03 04:25:35;;;;;;;70.70;34.33;;;0.60;99.90;;;-1.35;94.48;100252.41;10474159;27;96558;-85
2023/03/03 04:30:39;;;;;;;79.10;38.90;;;0.60;99.90;;;-1.37;94.26;100248.25;10476296;27;96532;-85
2023/03/03 04:35:42;;;;;;;55.80;26.83;;;0.60;99.90;;;-1.46;94.19;100249.59;10460084;27;97806;-85
2023/03/03 04:40:45;;;;;;;51.63;27.53;;;0.50;99.90;;;-1.54;94.18;100256.22;10501387;27;96500;-84
2023/03/03 04:45:48;;;;;;;52.97;28.43;;;0.40;99.90;;;-1.64;94.15;100248.06;10522471;27;96728;-86
2023/03/03 04:50:51;;;;;;;52.50;27.77;;;0.40;99.90;;;-1.73;94.35;100241.66;10479156;27;96558;-86
2023/03/03 04:55:54;;;;;;;40.70;21.70;;;0.30;99.90;;;-1.79;94.43;100246.38;10442960;27;98537;-88
2023/03/03 05:00:57;;;;;;;49.17;24.73;;;0.20;99.90;;;-1.86;94.29;100240.66;10475181;27;98251;-89
2023/03/03 05:06:00;;;;;;;48.20;26.43;;;0.20;99.90;;;-1.95;94.29;100239.44;10453891;27;96959;-88
2023/03/03 05:11:04;;;;;;;52.43;27.43;;;0.10;99.90;;;-1.96;94.45;100242.97;10426778;27;96537;-83
2023/03/03 05:16:07;;;;;;;44.40;23.07;;;0.10;99.90;;;-1.99;94.53;100239.69;10473391;27;96604;-83
2023/03/03 05:21:11;;;;;;;62.23;29.93;;;0.10;99.90;;;-2.00;94.70;100245.81;10455749;27;97549;-83
2023/03/03 05:26:14;;;;;;;68.00;33.37;;;0.00;99.90;;;-2.00;94.72;100238.00;10479568;27;97589;-83
2023/03/03 05:31:17;;;;;;;54.23;25.87;;;0.00;99.90;;;-1.98;95.09;100239.63;10475957;27;98552;-83
2023/03/03 05:36:21;;;;;;;44.23;23.93;;;0.00;99.90;;;-1.93;95.11;100244.53;10477603;27;96827;-83
2023/03/03 05:41:24;;;;;;;41.93;21.80;;;0.00;99.90;;;-1.90;95.19;100247.81;10473852;27;97511;-83
2023/03/03 05:46:27;;;;;;;45.20;23.90;;;0.10;99.90;;;-1.88;95.17;100258.97;10446780;27;96978;-84
2023/03/03 05:51:30;;;;;;;65.77;35.40;;;0.10;99.90;;;-1.85;95.21;100254.53;10452764;27;98156;-83
2023/03/03 05:56:33;;;;;;;46.43;23.67;;;0.10;99.90;;;-1.81;95.61;100258.63;10485117;27;96625;-83
2023/03/03 06:01:37;;;;;;;42.77;22.53;;;0.10;99.90;;;-1.73;95.58;100261.66;10490790;27;96572;-83
2023/03/03 06:06:41;;;;;;;44.50;23.47;;;0.20;99.90;;;-1.62;95.82;100260.09;10496123;27;98103;-83
2023/03/03 06:11:44;;;;;;;32.87;18.50;;;0.30;99.90;;;-1.46;95.92;100264.41;10484162;27;96938;-82
2023/03/03 06:16:47;;;;;;;39.30;21.43;;;0.40;99.90;;;-1.30;96.27;100265.19;10488399;27;96577;-83
2023/03/03 06:21:50;;;;;;;38.60;21.20;;;0.50;99.90;;;-1.11;95.96;100268.38;10489147;27;96646;-83
2023/03/03 06:26:54;;;;;;;35.23;20.23;;;0.70;99.90;;;-0.89;96.63;100273.16;10493998;27;98384;-82
2023/03/03 06:31:57;;;;;;;38.47;21.00;;;0.90;99.90;;;-0.64;96.39;100271.66;10471502;27;96662;-83
2023/03/03 06:37:01;;;;;;;63.17;31.07;;;1.10;99.90;;;-0.36;96.92;100282.06;10528857;27;98664;-85
2023/03/03 06:42:04;;;;;;;59.03;30.37;;;1.30;99.90;;;-0.12;96.91;100279.66;10490662;27;96626;-89
2023/03/03 06:47:07;;;;;;;73.87;36.30;;;1.50;99.90;;;0.18;96.86;100282.06;10525271;27;96488;-84
2023/03/03 06:52:26;;;;;;;70.57;37.67;;;1.80;99.90;;;0.48;96.87;100276.63;10488496;27;96545;-84
2023/03/03 06:57:33;;;;;;;58.33;30.83;;;2.10;99.90;;;0.76;97.02;100272.13;10481640;27;97840;-88
2023/03/03 07:02:36;;;;;;;55.33;33.77;;;2.30;99.90;;;1.03;96.83;100269.44;10491377;27;98264;-86
2023/03/03 07:07:38;;;;;;;51.63;28.60;;;2.60;99.90;;;1.29;96.12;100270.25;10501215;27;96968;-86
2023/03/03 07:12:41;;;;;;;63.30;34.57;;;2.80;99.90;;;1.48;95.78;100273.25;10492084;27;98248;-84
2023/03/03 07:17:48;;;;;;;82.07;41.03;;;3.00;99.90;;;1.64;95.08;100278.25;10504195;27;97915;-83
2023/03/03 07:22:53;;;;;;;55.03;31.57;;;3.20;99.90;;;1.82;94.87;100287.41;10467160;27;96464;-84
2023/03/03 07:28:11;;;;;;;72.77;42.07;;;3.40;99.90;;;2.04;94.58;100296.34;10462391;27;96438;-83
2023/03/03 07:33:39;;;;;;;93.47;51.83;;;3.60;99.90;;;2.32;94.05;100292.53;10467342;27;96614;-85
2023/03/03 07:38:59;;;;;;;76.37;41.20;;;3.90;99.90;;;2.65;93.71;100281.34;10489898;27;98411;-84
2023/03/03 07:44:20;;;;;;;66.00;33.50;;;4.10;99.90;;;3.01;93.06;100279.53;10466989;27;96972;-84
2023/03/03 07:49:36;;;;;;;74.47;36.67;;;4.50;99.90;;;3.30;92.00;100272.84;10513770;27;96678;-83
2023/03/03 07:54:42;;;;;;;71.60;32.17;;;4.70;99.90;;;3.73;90.67;100280.81;10515734;27;96834;-83
2023/03/03 08:00:01;;;;;;;70.03;31.17;;;5.00;99.90;;;4.46;89.50;100274.00;10463115;27;96464;-83
2023/03/03 08:05:30;;;;;;;44.60;24.70;;;5.50;99.90;;;5.26;87.53;100269.91;10498290;27;96722;-83
2023/03/03 08:10:52;;;;;;;32.67;20.93;;;5.90;99.90;;;6.23;84.61;100272.81;10464925;27;96705;-83
2023/03/03 08:16:20;;;;;;;;;;;6.50;99.90;;;7.05;80.29;100261.75;10478352;27;96757;-84
2023/03/03 08:21:25;;;;;;;33.97;20.73;;;7.20;99.90;;;7.38;76.89;100265.69;10451037;27;96778;-83
2023/03/03 08:26:28;;;;;;;36.43;22.13;;;7.60;99.90;;;7.39;73.93;100270.00;10465064;27;98241;-83
2023/03/03 08:31:31;;;;;;;33.20;20.03;;;8.00;99.90;;;7.50;71.48;100277.75;10513606;27;96570;-84
2023/03/03 08:36:43;;;;;;;28.60;17.50;;;8.30;99.90;;;7.36;71.00;100271.09;10483008;27;96561;-84
2023/03/03 08:41:46;;;;;;;31.23;18.93;;;8.40;99.90;;;7.66;70.37;100275.28;10470418;27;98469;-84
2023/03/03 08:46:49;;;;;;;26.70;18.30;;;8.70;99.90;;;7.98;69.54;100269.53;10489812;27;97471;-84
2023/03/03 08:51:53;;;;;;;29.57;18.00;;;9.10;99.90;;;8.69;68.41;100263.41;10504569;27;96583;-83
2023/03/03 08:56:56;;;;;;;28.07;17.30;;;9.60;99.90;;;9.77;67.48;100254.03;10521839;27;96526;-84
2023/03/03 09:01:59;;;;;;;29.40;18.77;;;10.30;99.90;;;10.72;63.88;100249.22;10481612;27;98327;-82
2023/03/03 09:07:02;;;;;;;26.27;16.95;;;11.20;99.90;;;11.78;61.71;100239.06;10540520;27;96565;-82
2023/03/03 09:12:21;;;;;;;23.83;16.83;;;12.10;99.00;;;12.70;58.91;100235.63;10474320;27;97504;-82
2023/03/03 09:17:36;;;;;;;24.10;17.90;;;12.80;97.00;;;13.45;56.40;100224.84;10486386;27;98315;-83
2023/03/03 09:22:39;;;;;;;22.98;16.13;;;13.40;94.90;;;14.00;54.35;100217.25;10470252;27;97519;-83
2023/03/03 09:27:42;;;;;;;27.08;16.58;;;14.00;94.60;;;14.45;52.08;100219.56;10507588;27;96716;-82
2023/03/03 09:32:45;;;;;;;21.45;14.20;;;14.50;92.80;;;14.66;50.90;100210.69;10511521;27;96803;-83
2023/03/03 09:37:51;;;;;;;22.27;14.18;;;15.00;90.30;;;14.88;50.13;100198.09;10480604;27;96669;-82
2023/03/03 09:43:22;;;;;;;16.92;13.18;;;15.40;87.70;;;14.89;48.09;100206.97;10464803;27;98022;-83
2023/03/03 09:48:46;;;;;;;10.40;7.20;;;15.90;84.50;;;14.73;46.92;100194.69;10489170;27;96800;-83
2023/03/03 09:54:17;;;;;;;9.73;5.95;;;16.10;79.30;;;14.05;46.65;100194.31;10487960;27;97911;-83
2023/03/03 09:59:42;;;;;;;11.68;7.32;;;15.80;75.00;;;13.33;48.42;100199.63;10495885;27;96728;-83
2023/03/03 10:05:14;;;;;;;12.90;6.90;;;15.00;74.00;;;12.30;50.54;100203.81;10488080;27;96642;-82
2023/03/03 10:10:47;;;;;;;13.88;8.25;;;14.10;74.70;;;11.57;52.39;100198.09;10485540;27;96511;-80
2023/03/03 10:16:18;;;;;;;9.43;5.80;;;13.30;76.70;;;11.19;53.25;100212.06;10488337;27;98087;-80
2023/03/03 10:21:49;;;;;;;11.57;6.53;;;12.90;77.70;;;10.89;55.14;100202.16;10484080;27;96707;-80
2023/03/03 10:26:58;;;;;;;9.77;6.20;;;12.50;80.00;;;11.04;55.16;100200.47;10483795;27;96517;-80
2023/03/03 10:32:39;;;;;;;12.05;5.88;;;12.60;80.10;;;11.72;53.93;100188.38;10538715;27;96600;-80
2023/03/03 10:38:14;;;;;;;8.98;6.03;;;13.10;79.60;;;12.28;52.74;100179.16;10526703;27;96549;-80
2023/03/03 10:44:17;;;;;;;9.75;5.28;;;13.80;78.30;;;13.05;49.99;100165.56;10483815;27;96440;-81
2023/03/03 10:50:20;;;;;;;7.30;4.40;;;14.80;74.60;;;14.06;48.15;100155.88;10468217;27;96787;-81
2023/03/03 10:55:51;;;;;;;6.63;3.85;;;15.60;71.70;;;13.77;43.99;100156.81;10461525;27;96737;-81
2023/03/03 11:01:29;;;;;;;8.63;4.82;;;15.80;65.60;;;13.30;46.94;100149.28;10504119;27;96647;-82
2023/03/03 11:07:15;;;;;;;11.80;6.68;;;15.10;67.70;;;13.24;47.25;100153.53;10474151;27;96738;-82
2023/03/03 11:12:33;;;;;;;10.05;7.60;;;15.00;68.50;;;13.37;48.13;100137.72;10500377;27;96613;-81
2023/03/03 11:17:48;;;;;;;10.20;6.20;;;15.10;69.70;;;13.55;46.43;100137.25;10495898;27;96774;-82
2023/03/03 11:23:06;;;;;;;9.43;6.50;;;15.20;68.00;;;13.65;45.74;100132.44;10531904;27;96422;-83
2023/03/03 11:28:43;;;;;;;10.25;5.93;;;15.30;66.60;;;14.06;44.86;100126.47;10515676;27;96418;-81
2023/03/03 11:33:51;;;;;;;11.57;7.60;;;15.70;66.10;;;14.03;45.00;100120.69;10489525;27;96506;-81
2023/03/03 11:38:58;;;;;;;19.95;11.80;;;15.70;65.40;;;13.70;45.18;100115.88;10483491;27;96498;-82
2023/03/03 11:44:04;;;;;;;17.50;9.73;;;15.50;65.00;;;13.37;45.64;100120.84;10504487;27;96859;-81
2023/03/03 11:49:17;;;;;;;31.77;16.20;;;15.10;65.30;;;13.48;45.92;100122.19;10518641;27;97342;-81
2023/03/03 11:54:55;;;;;;;32.22;17.65;;;15.10;66.00;;;14.23;45.62;100105.66;10473366;27;96806;-81
2023/03/03 12:00:16;;;;;;;12.20;9.27;;;15.80;65.40;;;15.01;43.21;100105.56;10475779;27;96419;-81
2023/03/03 12:06:03;;;;;;;10.93;7.53;;;16.60;63.30;;;14.89;43.21;100095.41;10481258;27;96890;-82
2023/03/03 12:11:42;;;;;;;8.10;6.68;;;16.50;62.20;;;15.08;42.51;100093.84;10500833;27;96522;-82
2023/03/03 12:17:14;;;;;;;13.35;7.28;;;16.60;61.50;;;15.37;41.79;100083.88;10524273;27;97204;-82
2023/03/03 12:22:32;;;;;;;9.13;6.15;;;16.70;61.80;;;15.29;40.33;100076.81;10489019;27;96750;-82
2023/03/03 12:28:04;;;;;;;10.48;6.45;;;16.80;59.30;;;15.21;40.45;100071.66;10516508;27;96609;-82
2023/03/03 12:33:29;;;;;;;11.20;6.28;;;16.60;59.40;;;14.98;39.80;100082.69;10540087;27;96434;-82
2023/03/03 12:39:14;;;;;;;7.25;4.65;;;16.40;58.30;;;14.77;39.63;100072.09;10482496;27;96691;-82
2023/03/03 12:45:10;;;;;;;10.57;5.10;;;16.10;57.90;;;14.44;40.17;100065.50;10461856;27;97482;-80
2023/03/03 12:50:46;;;;;;;9.60;5.60;;;15.70;58.30;;;14.03;41.57;100076.09;10469281;27;96531;-81
2023/03/03 12:55:59;;;;;;;10.43;6.18;;;15.50;59.30;;;14.06;41.64;100067.69;10495065;27;97613;-81
2023/03/03 13:01:35;;;;;;;15.60;8.65;;;15.40;59.80;;;13.87;42.78;100063.84;10485166;27;97282;-80
2023/03/03 13:07:23;;;;;;;11.48;8.00;;;15.40;61.00;;;13.64;43.09;100064.03;10499518;27;96613;-81
2023/03/03 13:12:40;;;;;;;16.70;11.57;;;15.20;61.20;;;13.15;44.04;100063.91;10512797;27;96606;-80
2023/03/03 13:17:53;;;;;;;14.95;10.18;;;14.80;61.80;;;12.98;44.91;100063.31;10482360;27;96762;-80
2023/03/03 13:23:30;;;;;;;14.25;10.45;;;14.60;62.60;;;13.04;45.42;100056.41;10496026;27;96767;-81
2023/03/03 13:28:57;;;;;;;12.93;8.85;;;14.50;63.40;;;12.97;43.90;100052.81;10498631;27;96768;-81
2023/03/03 13:34:01;;;;;;;14.35;9.57;;;14.40;61.90;;;12.72;43.92;100053.13;10484719;27;96537;-81
2023/03/03 13:39:21;;;;;;;13.27;8.82;;;14.20;61.60;;;12.57;43.56;100054.97;10489439;27;97576;-82
2023/03/03 13:44:37;;;;;;;19.73;10.07;;;14.00;61.00;;;12.44;43.82;100052.13;10477650;27;98238;-81
2023/03/03 13:50:06;;;;;;;15.43;9.87;;;13.90;61.60;;;12.34;44.07;100052.38;10537844;27;96605;-82
2023/03/03 13:55:43;;;;;;;16.37;10.30;;;13.80;62.00;;;12.19;44.41;100056.88;10501451;27;96664;-82
2023/03/03 14:01:01;;;;;;;17.33;11.13;;;13.60;62.20;;;12.03;45.08;100060.53;10469414;27;96676;-82
2023/03/03 14:06:14;;;;;;;18.33;11.50;;;13.50;62.60;;;11.90;44.79;100049.66;10484418;27;98383;-83
2023/03/03 14:12:19;;;;;;;17.17;12.90;;;13.40;62.70;;;11.72;45.97;100037.47;10480631;27;96694;-83
2023/03/03 14:17:56;;;;;;;18.87;12.60;;;13.20;63.70;;;11.58;46.48;100032.09;10511969;27;96668;-83
2023/03/03 14:23:32;;;;;;;15.87;11.13;;;13.10;64.20;;;11.42;46.80;100035.69;10510984;27;96752;-82
2023/03/03 14:29:34;;;;;;;15.40;10.77;;;13.00;64.50;;;11.08;47.14;100046.72;10490651;27;96702;-83
2023/03/03 14:34:40;;;;;;;14.20;9.55;;;12.60;64.80;;;10.93;47.28;100047.47;10485147;27;96772;-82
2023/03/03 14:39:47;;;;;;;14.57;10.33;;;12.50;65.00;;;10.84;48.23;100042.34;10509353;27;96810;-82
2023/03/03 14:44:55;;;;;;;16.63;11.03;;;12.40;65.30;;;10.82;47.78;100039.88;10496558;27;98559;-81
2023/03/03 14:50:02;;;;;;;16.53;11.77;;;12.30;65.60;;;10.79;47.84;100039.38;10465355;27;98363;-82
2023/03/03 14:55:37;;;;;;;16.07;11.23;;;12.20;65.70;;;10.64;47.73;100042.78;10474032;27;99213;-83
2023/03/03 15:00:40;;;;;;;16.63;11.13;;;12.10;65.70;;;10.54;48.30;100043.97;10481063;27;96507;-82
2023/03/03 15:05:56;;;;;;;17.27;10.70;;;12.00;66.00;;;10.44;48.27;100038.88;10493820;27;96649;-83
2023/03/03 15:11:16;;;;;;;23.73;10.40;;;11.90;66.20;;;10.40;48.78;100043.69;10492451;27;97652;-84
2023/03/03 15:16:30;;;;;;;16.03;10.50;;;11.80;66.50;;;10.38;48.31;100050.16;10481229;27;98466;-82
2023/03/03 15:21:39;;;;;;;18.17;12.23;;;11.80;66.30;;;10.30;48.08;100042.22;10499386;27;96720;-83
2023/03/03 15:26:58;;;;;;;21.03;13.60;;;11.70;66.20;;;10.20;48.47;100039.72;10470185;27;98424;-82
2023/03/03 15:32:43;;;;;;;60.97;32.07;;;11.70;66.50;;;10.12;48.61;100043.19;10477274;27;96928;-83
2023/03/03 15:38:21;;;;;;;24.10;15.17;;;11.60;66.70;;;10.00;48.84;100043.72;10512753;27;96634;-82
2023/03/03 15:43:33;;;;;;;23.73;15.03;;;11.40;67.10;;;9.86;49.22;100051.38;10450443;27;96638;-82
2023/03/03 15:48:55;;;;;;;50.80;25.20;;;11.30;67.20;;;9.69;49.76;100052.38;10472709;27;97490;-83
2023/03/03 15:54:24;;;;;;;23.43;14.07;;;11.20;67.70;;;9.48;50.01;100062.66;10485279;27;97995;-84
2023/03/03 15:59:49;;;;;;;18.13;11.73;;;11.00;67.80;;;9.20;50.32;100057.63;10515603;27;96552;-84
2023/03/03 16:05:21;;;;;;;18.47;12.27;;;10.80;68.00;;;8.97;50.65;100069.81;10496876;27;96718;-83
2023/03/03 16:11:05;;;;;;;20.70;12.57;;;10.60;68.20;;;8.70;51.03;100065.56;10496654;27;97452;-83
2023/03/03 16:16:35;;;;;;;19.60;12.50;;;10.30;68.50;;;8.45;51.79;100075.19;10457652;27;98505;-86
2023/03/03 16:22:23;;;;;;;25.10;16.97;;;10.10;69.00;;;8.17;52.24;100079.81;10523798;27;96678;-85
2023/03/03 16:28:07;;;;;;;19.80;13.17;;;9.80;69.30;;;7.86;52.56;100085.53;10488195;27;97341;-84
2023/03/03 16:33:42;;;;;;;25.83;17.20;;;9.60;69.70;;;7.64;52.65;100089.47;10509341;27;96505;-85
2023/03/03 16:39:30;;;;;;;24.97;16.17;;;9.30;69.80;;;7.45;53.31;100092.28;10512309;27;96525;-85
2023/03/03 16:44:41;;;;;;;36.13;21.73;;;9.10;70.50;;;7.28;53.95;100098.38;10511152;27;98342;-81
2023/03/03 16:49:58;;;;;;;33.97;20.95;;;8.90;70.70;;;7.13;54.32;100098.03;10475827;27;96683;-85
2023/03/03 16:55:31;;;;;;;28.57;18.63;;;8.80;71.00;;;6.92;54.65;100103.56;10497116;27;97763;-87
2023/03/03 17:01:07;;;;;;;27.90;17.10;;;8.60;71.20;;;6.63;55.37;100112.44;10471481;27;97146;-87
2023/03/03 17:06:47;;;;;;;28.67;16.73;;;8.40;71.60;;;6.48;55.82;100118.31;10480369;27;96445;-88
2023/03/03 17:12:25;;;;;;;26.97;16.10;;;8.20;72.30;;;6.24;56.39;100124.06;10519430;27;96614;-94
2023/03/03 17:17:53;;;;;;;27.73;15.60;;;8.00;72.40;;;5.96;56.61;100123.97;10491411;27;97685;-95
2023/03/03 17:23:42;;;;;;;67.60;34.40;;;7.80;72.50;;;5.65;57.40;100128.53;10482289;27;97686;-94
2023/03/03 17:29:17;;;;;;;38.90;21.00;;;7.50;72.90;;;5.32;58.14;100125.28;10524198;27;96413;-94
2023/03/03 17:35:19;;;;;;;51.20;29.20;;;7.30;73.40;;;5.00;58.91;100130.75;10490028;27;97029;-95
2023/03/03 17:41:06;;;;;;;83.57;37.17;;;7.00;74.00;;;4.69;59.70;100132.59;10488875;27;96451;-94
2023/03/03 17:46:27;;;;;;;87.50;50.40;;;6.70;74.70;;;4.40;60.79;100131.59;10515707;27;96533;-95
2023/03/03 17:57:57;;;;;;;43.23;25.40;;;6.10;76.20;;;4.08;63.53;100136.91;10240537;28;97233;-88
2023/03/03 18:03:14;;;;;;;37.93;21.50;;;5.90;77.00;;;4.09;63.93;100134.19;10236230;28;97264;-86
2023/03/03 18:08:45;;;;;;;38.07;21.23;;;5.80;78.80;;;4.26;64.21;100130.16;10255582;28;98417;-86
2023/03/03 18:14:14;;;;;;;38.03;20.53;;;5.90;79.80;;;4.45;64.59;100130.25;10271914;28;96879;-87
2023/03/03 18:19:49;;;;;;;39.90;23.27;;;6.10;80.30;;;4.67;64.22;100125.78;10225786;28;96712;-88
2023/03/03 18:24:53;;;;;;;41.57;21.37;;;6.30;80.90;;;4.95;63.50;100126.84;10257701;28;96729;-87
2023/03/03 18:30:50;;;;;;;43.30;22.77;;;6.50;80.30;;;5.21;62.93;100129.84;10262736;28;97371;-87
2023/03/03 18:36:35;;;;;;;43.23;23.97;;;6.70;80.30;;;5.43;61.87;100123.50;10238890;28;96680;-88
2023/03/03 18:42:14;;;;;;;44.67;23.47;;;6.90;79.90;;;5.59;61.18;100126.44;10205949;28;96457;-88
2023/03/03 18:47:19;;;;;;;41.33;23.97;;;7.10;79.60;;;5.63;60.92;100112.84;10208207;28;97169;-88
2023/03/03 18:52:30;;;;;;;44.17;24.57;;;7.10;79.10;;;5.73;60.38;100125.19;10244101;28;96558;-88
2023/03/03 18:57:34;;;;;;;47.90;26.63;;;7.20;78.80;;;5.80;59.64;100123.66;10309263;28;97089;-87
2023/03/03 19:02:47;;;;;;;42.87;23.43;;;7.30;78.50;;;5.76;59.10;100115.22;10276802;28;96615;-87
2023/03/03 19:08:17;;;;;;;40.73;21.77;;;7.30;78.00;;;5.74;59.04;100124.22;10290448;28;96581;-87
2023/03/03 19:13:32;;;;;;;37.53;21.00;;;7.30;77.40;;;5.78;58.33;100130.91;10317140;28;96807;-87
2023/03/03 19:18:41;;;;;;;38.07;20.50;;;7.30;76.90;;;5.79;57.85;100133.38;10313504;28;96448;-87
2023/03/03 19:23:58;;;;;;;38.93;21.40;;;7.30;76.60;;;5.68;57.76;100141.44;10291945;28;97221;-86
2023/03/03 19:29:26;;;;;;;37.83;20.30;;;7.30;76.40;;;5.52;57.95;100141.16;10293135;28;97279;-88
2023/03/03 19:35:00;;;;;;;37.00;20.90;;;7.20;76.40;;;5.37;58.10;100141.53;10294413;28;98395;-88
2023/03/03 19:41:08;;;;;;;38.77;20.47;;;7.00;76.50;;;5.22;58.42;100149.97;10284560;28;96544;-88
2023/03/03 19:47:17;;;;;;;34.90;19.50;;;6.90;76.70;;;5.06;58.32;100153.94;10248992;28;96635;-89
2023/03/03 19:53:04;;;;;;;34.37;18.07;;;6.70;76.60;;;4.82;58.76;100153.44;10219608;28;97854;-88
2023/03/03 19:58:21;;;;;;;37.93;19.73;;;6.60;76.70;;;4.54;59.39;100154.94;10285841;28;96859;-88
2023/03/03 20:03:53;;;;;;;48.27;26.53;;;6.30;77.00;;;4.33;59.90;100154.97;10319541;28;97034;-87
2023/03/03 20:09:14;;;;;;;66.30;36.13;;;6.20;77.40;;;4.10;60.45;100163.94;10291562;28;96606;-89
2023/03/03 20:14:57;;;;;;;58.35;33.33;;;5.90;77.70;;;3.80;61.29;100177.81;10282801;28;98423;-88
2023/03/03 20:20:35;;;;;;;60.03;32.23;;;5.70;78.10;;;3.46;62.13;100173.47;10278898;28;96612;-88
2023/03/03 20:26:13;;;;;;;95.67;44.73;;;5.40;78.60;;;3.17;62.98;100174.94;10302260;28;96510;-88
2023/03/03 20:31:46;;;;;;;62.53;30.10;;;5.10;79.10;;;2.87;63.95;100175.56;10299079;28;96557;-89
2023/03/03 20:37:09;;;;;;;56.80;26.80;;;4.90;79.80;;;2.66;64.71;100168.41;10283064;28;98450;-88
2023/03/03 20:42:55;;;;;;;48.57;24.93;;;4.60;80.40;;;2.56;65.25;100174.47;10294335;28;98308;-88
2023/03/03 20:48:39;;;;;;;55.60;25.57;;;4.50;81.40;;;2.44;66.20;100180.66;10266542;28;97413;-88
2023/03/03 20:54:37;;;;;;;147.53;52.17;;;4.30;81.70;;;2.22;67.07;100184.03;10303504;28;97400;-88
2023/03/03 21:00:20;;;;;;;57.13;24.50;;;4.20;82.20;;;2.09;67.26;100178.88;10296796;28;97239;-88
2023/03/03 21:05:25;;;;;;;42.37;17.83;;;4.00;83.10;;;2.07;67.87;100183.41;10296078;28;98404;-88
2023/03/03 21:10:34;;;;;;;32.27;15.83;;;3.90;83.70;;;2.20;68.24;100181.53;10276173;28;96812;-88
2023/03/03 21:15:38;;;;;;;28.00;14.07;;;4.00;84.20;;;2.29;67.75;100180.03;10262901;28;96630;-89
2023/03/03 21:20:41;;;;;;;27.57;14.20;;;4.10;84.00;;;2.37;67.49;100177.66;10284753;28;96884;-87
2023/03/03 21:25:53;;;;;;;25.60;12.40;;;4.20;84.00;;;2.37;66.78;100181.13;10264751;28;96630;-88
2023/03/03 21:31:16;;;;;;;26.87;14.77;;;4.20;83.50;;;2.33;66.25;100184.06;10246520;28;97115;-87
2023/03/03 21:36:30;;;;;;;25.23;13.40;;;4.20;83.20;;;2.23;66.40;100185.75;10292115;28;97256;-87
2023/03/03 21:42:13;;;;;;;30.23;14.83;;;4.10;82.90;;;2.09;66.47;100189.38;10295463;28;97364;-87
2023/03/03 21:47:18;;;;;;;;;;;4.00;83.40;;;2.03;67.22;100182.78;10278218;28;96951;-87
2023/03/03 21:52:21;;;;;;;27.53;14.20;;;3.90;85.20;;;2.00;67.05;100185.66;10287470;28;97067;-87